createdAt,value
2024-04-23T00:02:09.522Z,12.75
2024-04-23T00:07:28.577Z,12.74
2024-04-23T00:12:47.550Z,12.74
2024-04-23T00:18:07.048Z,12.74
2024-04-23T00:23:25.827Z,12.74
2024-04-23T00:28:45.605Z,12.73
2024-04-23T00:34:04.592Z,12.74
2024-04-23T00:39:23.384Z,12.74
2024-04-23T00:44:42.904Z,12.74
2024-04-23T00:50:02.068Z,12.73
2024-04-23T00:55:21.584Z,12.73
2024-04-23T01:00:39.902Z,12.73
2024-04-23T01:05:58.492Z,12.72
2024-04-23T01:11:17.965Z,12.73
2024-04-23T01:16:37.718Z,12.72
2024-04-23T01:21:56.807Z,12.72
2024-04-23T01:27:16.055Z,12.72
2024-04-23T01:32:36.141Z,12.7
2024-04-23T01:37:54.744Z,12.72
2024-04-23T01:43:13.894Z,12.71
2024-04-23T01:48:33.182Z,12.71
2024-04-23T01:53:52.744Z,12.7
2024-04-23T01:59:12.045Z,12.7
2024-04-23T02:04:31.366Z,12.7
2024-04-23T02:09:50.286Z,12.69
2024-04-23T02:20:28.866Z,12.69
2024-04-23T02:25:48.718Z,12.69
2024-04-23T02:31:07.562Z,12.69
2024-04-23T02:36:26.966Z,12.68
2024-04-23T02:41:46.589Z,12.68
2024-04-23T02:47:05.916Z,12.68
2024-04-23T02:52:25.476Z,12.68
2024-04-23T03:03:03.980Z,12.67
2024-04-23T03:08:23.988Z,12.68
2024-04-23T03:14:58.170Z,12.66
2024-04-23T03:19:02.084Z,12.67
2024-04-23T03:24:21.858Z,12.66
2024-04-23T03:29:41.252Z,12.66
2024-04-23T03:35:00.636Z,12.65
2024-04-23T03:40:19.719Z,12.66
2024-04-23T03:45:39.460Z,12.64
2024-04-23T03:50:59.147Z,12.64
2024-04-23T03:56:19.207Z,12.64
2024-04-23T04:01:39.219Z,12.64
2024-04-23T04:06:58.006Z,12.63
2024-04-23T04:12:17.071Z,12.62
2024-04-23T04:17:36.945Z,12.61
2024-04-23T04:22:56.713Z,12.62
2024-04-23T04:28:16.012Z,12.62
2024-04-23T04:33:34.237Z,12.62
2024-04-23T04:38:53.838Z,12.63
2024-04-23T04:44:14.042Z,12.63
2024-04-23T04:49:32.400Z,12.64
2024-04-23T04:54:51.188Z,12.66
2024-04-23T05:00:10.677Z,12.67
2024-04-23T05:05:29.591Z,12.68
2024-04-23T05:10:50.179Z,12.69
2024-04-23T05:16:09.580Z,12.7
2024-04-23T05:21:29.094Z,12.72
2024-04-23T05:26:48.943Z,12.74
2024-04-23T05:32:07.973Z,12.76
2024-04-23T05:37:27.235Z,12.78
2024-04-23T05:42:46.902Z,12.81
2024-04-23T05:48:06.587Z,12.87
2024-04-23T05:53:25.999Z,12.96
2024-04-23T05:58:44.976Z,13.06
2024-04-23T06:04:04.660Z,13.22
2024-04-23T06:09:24.242Z,13.38
2024-04-23T06:14:43.692Z,13.54
2024-04-23T06:20:02.839Z,13.71
2024-04-23T06:25:22.068Z,13.85
2024-04-23T06:30:40.394Z,13.93
2024-04-23T06:36:00.002Z,14.01
2024-04-23T06:46:37.948Z,14.14
2024-04-23T06:51:57.754Z,14.24
2024-04-23T06:57:16.436Z,14.34
2024-04-23T07:02:35.984Z,14.34
2024-04-23T07:07:55.218Z,14.34
2024-04-23T07:13:14.451Z,14.34
2024-04-23T07:18:35.725Z,14.34
2024-04-23T07:23:53.389Z,14.34
2024-04-23T07:30:27.602Z,14.33
2024-04-23T07:34:32.826Z,14.4
2024-04-23T07:43:05.951Z,14.38
2024-04-23T07:47:21.309Z,14.4
2024-04-23T07:50:29.313Z,14.38
2024-04-23T07:55:48.553Z,14.44
2024-04-23T08:01:08.333Z,14.4
2024-04-23T08:06:27.563Z,14.38
2024-04-23T08:11:45.957Z,14.39
2024-04-23T08:17:05.850Z,14.44
2024-04-23T08:22:25.361Z,14.38
2024-04-23T08:28:59.760Z,14.43
2024-04-23T08:33:04.501Z,14.39
2024-04-23T08:38:23.672Z,14.4
2024-04-23T08:43:42.173Z,14.4
2024-04-23T08:49:01.630Z,14.39
2024-04-23T08:54:21.033Z,14.4
2024-04-23T08:59:38.811Z,14.4
2024-04-23T09:04:57.463Z,14.4
2024-04-23T09:10:17.071Z,14.4
2024-04-23T09:15:36.738Z,14.4
2024-04-23T09:22:10.951Z,14.4
2024-04-23T09:26:14.773Z,14.48
2024-04-23T09:31:34.212Z,14.4
2024-04-23T09:36:52.883Z,14.46
2024-04-23T09:42:12.176Z,14.42
2024-04-23T09:47:31.057Z,14.39
2024-04-23T09:52:50.927Z,14.4
2024-04-23T09:58:09.841Z,14.39
2024-04-23T10:03:28.790Z,14.41
2024-04-23T10:08:48.095Z,14.48
2024-04-23T10:14:07.136Z,14.41
2024-04-23T10:20:41.194Z,14.41
2024-04-23T10:24:47.315Z,14.4
2024-04-23T10:30:06.811Z,14.39
2024-04-23T10:35:25.860Z,14.39
2024-04-23T10:40:49.392Z,14.41
2024-04-23T10:46:04.170Z,14.45
2024-04-23T10:51:22.269Z,14.4
2024-04-23T10:56:40.488Z,14.4
2024-04-23T11:01:59.491Z,14.42
2024-04-23T11:07:19.004Z,14.4
2024-04-23T11:12:38.017Z,14.4
2024-04-23T11:17:57.109Z,14.42
2024-04-23T11:23:15.940Z,14.39
2024-04-23T11:28:40.152Z,14.41
2024-04-23T11:33:54.791Z,14.39
2024-04-23T11:39:13.955Z,14.4
2024-04-23T11:44:33.599Z,14.39
2024-04-23T11:49:53.354Z,14.42
2024-04-23T11:55:12.915Z,14.4
2024-04-23T12:00:32.609Z,14.4
2024-04-23T12:05:51.921Z,14.4
2024-04-23T12:11:10.618Z,14.45
2024-04-23T12:16:29.968Z,14.4
2024-04-23T12:21:49.134Z,14.41
2024-04-23T12:27:18.288Z,14.41
2024-04-23T12:32:27.695Z,14.39
2024-04-23T12:37:46.501Z,14.39
2024-04-23T12:43:06.906Z,14.41
2024-04-23T12:48:25.910Z,14.39
2024-04-23T12:53:45.017Z,14.4
2024-04-23T12:59:04.003Z,14.4
2024-04-23T13:04:23.021Z,14.39
2024-04-23T13:09:42.653Z,14.39
2024-04-23T13:15:01.540Z,14.4
2024-04-23T13:20:20.167Z,14.41
2024-04-23T13:25:39.984Z,14.39
2024-04-23T13:30:59.447Z,14.4
2024-04-23T13:36:18.904Z,14.45
2024-04-23T13:41:37.748Z,14.4
2024-04-23T13:46:57.282Z,14.42
2024-04-23T13:52:16.349Z,14.41
2024-04-23T13:57:35.902Z,14.4
2024-04-23T14:02:55.327Z,14.39
2024-04-23T14:08:15.710Z,14.41
2024-04-23T14:13:34.114Z,14.4
2024-04-23T14:18:54.129Z,14.4
2024-04-23T14:24:12.151Z,14.39
2024-04-23T14:29:31.728Z,14.44
2024-04-23T14:34:51.609Z,14.4
2024-04-23T14:40:11.075Z,14.4
2024-04-23T14:46:04.446Z,14.4
2024-04-23T14:51:23.974Z,14.38
2024-04-23T14:56:43.256Z,14.46
2024-04-23T15:02:02.229Z,14.39
2024-04-23T15:07:20.498Z,14.4
2024-04-23T15:12:40.586Z,14.39
2024-04-23T15:23:18.213Z,14.45
2024-04-23T15:28:37.798Z,14.4
2024-04-23T15:33:57.106Z,14.41
2024-04-23T15:39:16.690Z,14.39
2024-04-23T15:44:36.312Z,14.4
2024-04-23T15:49:56.412Z,14.39
2024-04-23T15:55:14.312Z,14.39
2024-04-23T16:00:33.789Z,14.39
2024-04-23T16:05:53.151Z,14.38
2024-04-23T16:11:12.798Z,14.4
2024-04-23T16:21:50.986Z,14.39
2024-04-23T16:27:10.164Z,14.39
2024-04-23T16:32:29.050Z,14.4
2024-04-23T16:37:48.350Z,14.4
2024-04-23T16:43:08.721Z,14.4
2024-04-23T16:48:27.029Z,14.4
2024-04-23T16:53:46.364Z,14.4
2024-04-23T16:59:05.347Z,14.41
2024-04-23T17:04:24.175Z,14.4
2024-04-23T17:09:43.660Z,14.38
2024-04-23T17:15:02.775Z,14.39
2024-04-23T17:20:21.458Z,14.37
2024-04-23T17:25:41.057Z,14.38
2024-04-23T17:31:00.594Z,14.38
2024-04-23T17:36:28.356Z,13.11
2024-04-23T17:41:38.134Z,13.07
2024-04-23T17:46:57.265Z,13.03
2024-04-23T17:57:36.417Z,12.98
2024-04-23T18:03:05.470Z,12.98
2024-04-23T18:08:14.276Z,12.96
2024-04-23T18:13:33.781Z,12.94
2024-04-23T18:18:53.292Z,12.93
2024-04-23T18:24:12.505Z,12.92
2024-04-23T18:29:31.981Z,12.92
2024-04-23T18:40:11.647Z,12.92
2024-04-23T18:45:30.348Z,12.91
2024-04-23T18:50:50.073Z,12.9
2024-04-23T18:56:07.994Z,12.9
2024-04-23T19:01:27.173Z,12.89
2024-04-23T19:06:46.744Z,12.88
2024-04-23T19:12:06.842Z,12.87
2024-04-23T19:17:27.301Z,12.88
2024-04-23T19:22:45.638Z,12.87
2024-04-23T19:28:04.593Z,12.87
2024-04-23T19:38:43.347Z,12.86
2024-04-23T19:44:02.410Z,12.86
2024-04-23T19:49:21.435Z,12.86
2024-04-23T19:54:40.286Z,12.86
2024-04-23T19:59:59.633Z,12.86
2024-04-23T20:05:18.604Z,12.85
2024-04-23T20:10:38.092Z,12.85
2024-04-23T20:15:57.802Z,12.85
2024-04-23T20:21:16.627Z,12.84
2024-04-23T20:26:35.954Z,12.84
2024-04-23T20:31:55.471Z,12.84
2024-04-23T20:37:15.525Z,12.83
2024-04-23T20:43:49.699Z,12.83
2024-04-23T20:47:54.754Z,12.82
2024-04-23T20:53:13.293Z,12.82
2024-04-23T20:58:32.049Z,12.82
2024-04-23T21:03:51.094Z,12.82
2024-04-23T21:09:11.519Z,12.82
2024-04-23T21:14:30.888Z,12.81
2024-04-23T21:19:49.783Z,12.81
2024-04-23T21:25:08.900Z,12.82
2024-04-23T21:30:29.257Z,12.8
2024-04-23T21:35:47.946Z,12.8
2024-04-23T21:41:07.549Z,12.8
2024-04-23T21:46:26.075Z,12.8
2024-04-23T21:52:02.027Z,12.8
2024-04-23T21:57:04.761Z,12.8
2024-04-23T22:02:23.581Z,12.79
2024-04-23T22:07:43.867Z,12.79
2024-04-23T22:13:02.072Z,12.79
2024-04-23T22:18:21.116Z,12.79
2024-04-23T22:23:40.556Z,12.78
2024-04-23T22:28:59.827Z,12.78
2024-04-23T22:34:19.370Z,12.78
2024-04-23T22:39:38.075Z,12.78
2024-04-23T22:44:57.721Z,12.78
2024-04-23T22:50:17.574Z,12.78
2024-04-23T22:55:37.802Z,12.77
2024-04-23T23:00:56.723Z,12.76
2024-04-23T23:06:16.050Z,12.76
2024-04-23T23:11:36.130Z,12.76
2024-04-23T23:16:54.534Z,12.76
2024-04-23T23:22:13.516Z,12.76
2024-04-23T23:27:33.701Z,12.75
2024-04-23T23:32:51.973Z,12.75
2024-04-23T23:38:10.976Z,12.76
2024-04-23T23:43:29.988Z,12.74
2024-04-23T23:48:49.286Z,12.74
2024-04-23T23:54:09.107Z,12.74
2024-04-23T23:59:27.428Z,12.74
